AVA124 SEQM-SKBO
Flight info
| Callsign | AVA124 |
|---|---|
| Flight time | 1h 12m |
| Altitude | 33000 |
| Route | ARNOK3A ARNOK UP533 BOKAN DCT ESARO DCT GIR GIR4E |
| Aircraft | A339/H-SADE1E2E3GHIJ3J5M1P2RWXY/LB2D1 |
Departure
| Time | 2026-05-05 02:34 |
|---|---|
| Airport | Mariscal Sucre International Airport (SEQM) |
Arrival
| Time | 2026-05-05 03:47 |
|---|---|
| Airport | El Dorado International Airport (SKBO) |
| Time | Latitude | Longitude | Altitude | Speed | Heading |
|---|---|---|---|---|---|
| 2026-05-05 02:01 | -0.12877 | -78.35773 | 7865 ft | 0 kts | 266° |
| 2026-05-05 02:23 | -0.12876 | -78.35758 | 7865 ft | 3 kts | 270° |
| 2026-05-05 02:23 | -0.12876 | -78.35738 | 7865 ft | 3 kts | 278° |
| 2026-05-05 02:23 | -0.12879 | -78.35718 | 7865 ft | 3 kts | 288° |
| 2026-05-05 02:23 | -0.12885 | -78.35699 | 7869 ft | 3 kts | 302° |
| 2026-05-05 02:24 | -0.12894 | -78.35684 | 7872 ft | 3 kts | 326° |
| 2026-05-05 02:24 | -0.12907 | -78.35675 | 7873 ft | 2 kts | 356° |
| 2026-05-05 02:24 | -0.12909 | -78.35674 | 7873 ft | 0 kts | 358° |
| 2026-05-05 02:27 | -0.12904 | -78.35675 | 7873 ft | 3 kts | 358° |
| 2026-05-05 02:27 | -0.12859 | -78.35677 | 7871 ft | 10 kts | 357° |
| 2026-05-05 02:27 | -0.12765 | -78.35681 | 7864 ft | 18 kts | 358° |
| 2026-05-05 02:27 | -0.12692 | -78.35656 | 7855 ft | 9 kts | 45° |
| 2026-05-05 02:28 | -0.12694 | -78.35620 | 7860 ft | 0 kts | 109° |
| 2026-05-05 02:28 | -0.12693 | -78.35620 | 7860 ft | 0 kts | 109° |
| 2026-05-05 02:28 | -0.12699 | -78.35612 | 7862 ft | 4 kts | 118° |
| 2026-05-05 02:28 | -0.12742 | -78.35600 | 7867 ft | 12 kts | 176° |
| 2026-05-05 02:29 | -0.12883 | -78.35593 | 7874 ft | 26 kts | 177° |
| 2026-05-05 02:29 | -0.13060 | -78.35585 | 7881 ft | 25 kts | 177° |
| 2026-05-05 02:29 | -0.13216 | -78.35577 | 7889 ft | 22 kts | 178° |
| 2026-05-05 02:29 | -0.13370 | -78.35570 | 7891 ft | 23 kts | 177° |
| 2026-05-05 02:30 | -0.13535 | -78.35565 | 7895 ft | 24 kts | 178° |
| 2026-05-05 02:30 | -0.13697 | -78.35559 | 7905 ft | 23 kts | 178° |
| 2026-05-05 02:30 | -0.13862 | -78.35553 | 7904 ft | 24 kts | 178° |
| 2026-05-05 02:30 | -0.14033 | -78.35544 | 7917 ft | 24 kts | 177° |
| 2026-05-05 02:31 | -0.14184 | -78.35536 | 7920 ft | 19 kts | 172° |
| 2026-05-05 02:31 | -0.14251 | -78.35493 | 7923 ft | 0 kts | 126° |
| 2026-05-05 02:31 | -0.14251 | -78.35489 | 7924 ft | 3 kts | 116° |
| 2026-05-05 02:31 | -0.14253 | -78.35439 | 7923 ft | 6 kts | 87° |
| 2026-05-05 02:32 | -0.14253 | -78.35438 | 7923 ft | 0 kts | 87° |
| 2026-05-05 02:32 | -0.14252 | -78.35432 | 7922 ft | 4 kts | 87° |
| 2026-05-05 02:32 | -0.14230 | -78.35379 | 7922 ft | 12 kts | 39° |
| 2026-05-05 02:32 | -0.14121 | -78.35375 | 7919 ft | 17 kts | 359° |
| 2026-05-05 02:33 | -0.14068 | -78.35375 | 7918 ft | 0 kts | 359° |
| 2026-05-05 02:33 | -0.13972 | -78.35379 | 7912 ft | 47 kts | 357° |
| 2026-05-05 02:33 | -0.13384 | -78.35403 | 7894 ft | 119 kts | 358° |
| 2026-05-05 02:34 | -0.12352 | -78.35446 | 7851 ft | 174 kts | 357° |
| 2026-05-05 02:34 | -0.11052 | -78.35501 | 8211 ft | 188 kts | 356° |
| 2026-05-05 02:34 | -0.09735 | -78.35564 | 8900 ft | 192 kts | 357° |
| 2026-05-05 02:34 | -0.08402 | -78.35642 | 9547 ft | 194 kts | 354° |
| 2026-05-05 02:35 | -0.06994 | -78.35752 | 9996 ft | 208 kts | 356° |
| 2026-05-05 02:35 | -0.05495 | -78.35842 | 10194 ft | 227 kts | 357° |
| 2026-05-05 02:35 | -0.03895 | -78.35915 | 10556 ft | 233 kts | 359° |
| 2026-05-05 02:35 | -0.02246 | -78.35983 | 10869 ft | 243 kts | 359° |
| 2026-05-05 02:36 | -0.00487 | -78.36057 | 11005 ft | 261 kts | 359° |
| 2026-05-05 02:36 | 0.01377 | -78.36142 | 11126 ft | 277 kts | 358° |
| 2026-05-05 02:36 | 0.03371 | -78.36238 | 11251 ft | 293 kts | 358° |
| 2026-05-05 02:36 | 0.05474 | -78.36343 | 11380 ft | 311 kts | 358° |
| 2026-05-05 02:37 | 0.07693 | -78.36458 | 11514 ft | 327 kts | 358° |
| 2026-05-05 02:37 | 0.09999 | -78.36802 | 11624 ft | 343 kts | 343° |
| 2026-05-05 02:37 | 0.12133 | -78.37946 | 11827 ft | 356 kts | 322° |
| 2026-05-05 02:37 | 0.13760 | -78.39792 | 12233 ft | 361 kts | 302° |
| 2026-05-05 02:38 | 0.14979 | -78.41995 | 12645 ft | 364 kts | 304° |
| 2026-05-05 02:38 | 0.16704 | -78.43841 | 13030 ft | 367 kts | 323° |
| 2026-05-05 02:38 | 0.18950 | -78.45039 | 13509 ft | 367 kts | 342° |
| 2026-05-05 02:38 | 0.21458 | -78.45463 | 13916 ft | 367 kts | 2° |
| 2026-05-05 02:39 | 0.23964 | -78.45050 | 14376 ft | 365 kts | 21° |
| 2026-05-05 02:39 | 0.26185 | -78.43872 | 14753 ft | 362 kts | 39° |
| 2026-05-05 02:39 | 0.27901 | -78.42048 | 15097 ft | 361 kts | 58° |
| 2026-05-05 02:39 | 0.28915 | -78.39771 | 15533 ft | 360 kts | 77° |
| 2026-05-05 02:40 | 0.29270 | -78.37299 | 15962 ft | 361 kts | 86° |
| 2026-05-05 02:40 | 0.29409 | -78.34813 | 16350 ft | 363 kts | 88° |
| 2026-05-05 02:40 | 0.29730 | -78.32299 | 16730 ft | 366 kts | 76° |
| 2026-05-05 02:40 | 0.30680 | -78.29934 | 17148 ft | 369 kts | 62° |
| 2026-05-05 02:41 | 0.32149 | -78.27822 | 17565 ft | 371 kts | 51° |
| 2026-05-05 02:41 | 0.33911 | -78.25909 | 17952 ft | 374 kts | 46° |
| 2026-05-05 02:41 | 0.35800 | -78.24106 | 18350 ft | 377 kts | 44° |
| 2026-05-05 02:41 | 0.37740 | -78.22333 | 18731 ft | 378 kts | 43° |
| 2026-05-05 02:42 | 0.39661 | -78.20584 | 19065 ft | 380 kts | 43° |
| 2026-05-05 02:42 | 0.41616 | -78.18790 | 19431 ft | 381 kts | 44° |
| 2026-05-05 02:42 | 0.43571 | -78.16985 | 19795 ft | 383 kts | 44° |
| 2026-05-05 02:42 | 0.45530 | -78.15167 | 20087 ft | 386 kts | 44° |
| 2026-05-05 02:43 | 0.47504 | -78.13330 | 20445 ft | 388 kts | 44° |
| 2026-05-05 02:43 | 0.49487 | -78.11490 | 20768 ft | 390 kts | 43° |
| 2026-05-05 02:43 | 0.51620 | -78.09797 | 21069 ft | 394 kts | 38° |
| 2026-05-05 02:43 | 0.53832 | -78.08170 | 21431 ft | 395 kts | 38° |
| 2026-05-05 02:44 | 0.56018 | -78.06553 | 21796 ft | 397 kts | 38° |
| 2026-05-05 02:44 | 0.58247 | -78.04897 | 22120 ft | 399 kts | 38° |
| 2026-05-05 02:44 | 0.60481 | -78.03235 | 22453 ft | 402 kts | 38° |
| 2026-05-05 02:44 | 0.62731 | -78.01558 | 22784 ft | 404 kts | 38° |
| 2026-05-05 02:45 | 0.64988 | -77.99878 | 23159 ft | 405 kts | 38° |
| 2026-05-05 02:45 | 0.67259 | -77.98186 | 23513 ft | 407 kts | 38° |
| 2026-05-05 02:45 | 0.69513 | -77.96509 | 23868 ft | 410 kts | 38° |
| 2026-05-05 02:45 | 0.71805 | -77.94802 | 24182 ft | 411 kts | 38° |
| 2026-05-05 02:46 | 0.74104 | -77.93090 | 24518 ft | 413 kts | 38° |
| 2026-05-05 02:46 | 0.76419 | -77.91366 | 24836 ft | 415 kts | 38° |
| 2026-05-05 02:46 | 0.78708 | -77.89661 | 25163 ft | 416 kts | 38° |
| 2026-05-05 02:46 | 0.81025 | -77.87923 | 25479 ft | 418 kts | 40° |
| 2026-05-05 02:47 | 0.83249 | -77.86042 | 25791 ft | 419 kts | 42° |
| 2026-05-05 02:47 | 0.85470 | -77.84142 | 26082 ft | 421 kts | 42° |
| 2026-05-05 02:47 | 0.87713 | -77.82228 | 26344 ft | 424 kts | 42° |
| 2026-05-05 02:47 | 0.89967 | -77.80308 | 26630 ft | 427 kts | 42° |
| 2026-05-05 02:48 | 0.92236 | -77.78376 | 26915 ft | 429 kts | 42° |
| 2026-05-05 02:48 | 0.94510 | -77.76441 | 27200 ft | 431 kts | 42° |
| 2026-05-05 02:48 | 0.96800 | -77.74493 | 27469 ft | 433 kts | 42° |
| 2026-05-05 02:48 | 0.99091 | -77.72543 | 27751 ft | 435 kts | 42° |
| 2026-05-05 02:49 | 1.01368 | -77.70605 | 28001 ft | 436 kts | 42° |
| 2026-05-05 02:49 | 1.03694 | -77.68625 | 28255 ft | 438 kts | 42° |
| 2026-05-05 02:49 | 1.06022 | -77.66643 | 28514 ft | 440 kts | 42° |
| 2026-05-05 02:49 | 1.08360 | -77.64653 | 28759 ft | 442 kts | 42° |
| 2026-05-05 02:50 | 1.10704 | -77.62658 | 28998 ft | 444 kts | 42° |
| 2026-05-05 02:50 | 1.13075 | -77.60640 | 29228 ft | 446 kts | 42° |
| 2026-05-05 02:50 | 1.15404 | -77.58657 | 29464 ft | 448 kts | 42° |
| 2026-05-05 02:50 | 1.17785 | -77.56630 | 29705 ft | 449 kts | 42° |
| 2026-05-05 02:51 | 1.20181 | -77.54591 | 29935 ft | 451 kts | 42° |
| 2026-05-05 02:51 | 1.22566 | -77.52559 | 30200 ft | 453 kts | 42° |
| 2026-05-05 02:51 | 1.24979 | -77.50505 | 30446 ft | 455 kts | 42° |
| 2026-05-05 02:51 | 1.27390 | -77.48452 | 30687 ft | 457 kts | 42° |
| 2026-05-05 02:52 | 1.29815 | -77.46388 | 30928 ft | 458 kts | 42° |
| 2026-05-05 02:52 | 1.32247 | -77.44317 | 31120 ft | 460 kts | 42° |
| 2026-05-05 02:52 | 1.34689 | -77.42240 | 31395 ft | 461 kts | 42° |
| 2026-05-05 02:52 | 1.37150 | -77.40144 | 31614 ft | 463 kts | 42° |
| 2026-05-05 02:53 | 1.39603 | -77.38055 | 31855 ft | 465 kts | 42° |
| 2026-05-05 02:53 | 1.42039 | -77.35980 | 32100 ft | 466 kts | 42° |
| 2026-05-05 02:53 | 1.44515 | -77.33872 | 32325 ft | 468 kts | 42° |
| 2026-05-05 02:53 | 1.46988 | -77.31766 | 32548 ft | 469 kts | 42° |
| 2026-05-05 02:54 | 1.49480 | -77.29644 | 32763 ft | 471 kts | 42° |
| 2026-05-05 02:54 | 1.51994 | -77.27503 | 32923 ft | 472 kts | 42° |
| 2026-05-05 02:54 | 1.54503 | -77.25367 | 33061 ft | 474 kts | 42° |
| 2026-05-05 02:54 | 1.57012 | -77.23230 | 33184 ft | 474 kts | 42° |
| 2026-05-05 02:55 | 1.59529 | -77.21086 | 33185 ft | 478 kts | 42° |
| 2026-05-05 02:55 | 1.64580 | -77.16783 | 33144 ft | 478 kts | 42° |
| 2026-05-05 02:56 | 1.69644 | -77.12469 | 33101 ft | 478 kts | 42° |
| 2026-05-05 02:56 | 1.74679 | -77.08180 | 33092 ft | 478 kts | 42° |
| 2026-05-05 02:57 | 1.79746 | -77.03863 | 33089 ft | 478 kts | 42° |
| 2026-05-05 02:57 | 1.84814 | -76.99544 | 33094 ft | 478 kts | 42° |
| 2026-05-05 02:58 | 1.89887 | -76.95223 | 33092 ft | 479 kts | 42° |
| 2026-05-05 02:58 | 1.94951 | -76.90907 | 33088 ft | 478 kts | 42° |
| 2026-05-05 02:59 | 1.99989 | -76.86610 | 33094 ft | 478 kts | 42° |
| 2026-05-05 02:59 | 2.05061 | -76.82288 | 33099 ft | 478 kts | 42° |
| 2026-05-05 03:00 | 2.10132 | -76.77967 | 33102 ft | 478 kts | 42° |
| 2026-05-05 03:00 | 2.14360 | -76.74362 | 33118 ft | 479 kts | 42° |
| 2026-05-05 03:01 | 2.19432 | -76.70038 | 33152 ft | 479 kts | 42° |
| 2026-05-05 03:01 | 2.24506 | -76.65712 | 33190 ft | 479 kts | 42° |
| 2026-05-05 03:02 | 2.29542 | -76.61418 | 33217 ft | 479 kts | 42° |
| 2026-05-05 03:02 | 2.34616 | -76.57091 | 33226 ft | 479 kts | 42° |
| 2026-05-05 03:03 | 2.39698 | -76.52756 | 33227 ft | 479 kts | 42° |
| 2026-05-05 03:03 | 2.44779 | -76.48423 | 33225 ft | 480 kts | 42° |
| 2026-05-05 03:04 | 2.49863 | -76.44086 | 33215 ft | 480 kts | 42° |
| 2026-05-05 03:04 | 2.54913 | -76.39777 | 33193 ft | 480 kts | 42° |
| 2026-05-05 03:05 | 2.60010 | -76.35429 | 33175 ft | 480 kts | 42° |
| 2026-05-05 03:05 | 2.65088 | -76.31097 | 33168 ft | 480 kts | 42° |
| 2026-05-05 03:06 | 2.70174 | -76.26756 | 33158 ft | 479 kts | 42° |
| 2026-05-05 03:06 | 2.75228 | -76.22443 | 33160 ft | 479 kts | 42° |
| 2026-05-05 03:07 | 2.80310 | -76.18102 | 33167 ft | 480 kts | 42° |
| 2026-05-05 03:07 | 2.85395 | -76.13762 | 33170 ft | 481 kts | 41° |
| 2026-05-05 03:08 | 2.90253 | -76.09260 | 33183 ft | 481 kts | 45° |
| 2026-05-05 03:08 | 2.95098 | -76.04654 | 33177 ft | 480 kts | 45° |
| 2026-05-05 03:09 | 2.99951 | -76.00047 | 33188 ft | 480 kts | 45° |
| 2026-05-05 03:09 | 3.04805 | -75.95439 | 33184 ft | 480 kts | 45° |
| 2026-05-05 03:10 | 3.09652 | -75.90836 | 33180 ft | 480 kts | 45° |
| 2026-05-05 03:10 | 3.14493 | -75.86236 | 33179 ft | 480 kts | 45° |
| 2026-05-05 03:11 | 3.19336 | -75.81635 | 33176 ft | 480 kts | 45° |
| 2026-05-05 03:11 | 3.24158 | -75.77053 | 33164 ft | 480 kts | 45° |
| 2026-05-05 03:12 | 3.29001 | -75.72451 | 33155 ft | 480 kts | 45° |
| 2026-05-05 03:12 | 3.33854 | -75.67838 | 33139 ft | 481 kts | 44° |
| 2026-05-05 03:13 | 3.38709 | -75.63223 | 33131 ft | 482 kts | 44° |
| 2026-05-05 03:13 | 3.43580 | -75.58592 | 33115 ft | 482 kts | 44° |
| 2026-05-05 03:14 | 3.48449 | -75.53962 | 33110 ft | 482 kts | 44° |
| 2026-05-05 03:14 | 3.53314 | -75.49336 | 33110 ft | 483 kts | 44° |
| 2026-05-05 03:15 | 3.58187 | -75.44701 | 33097 ft | 483 kts | 44° |
| 2026-05-05 03:15 | 3.63057 | -75.40067 | 33095 ft | 484 kts | 44° |
| 2026-05-05 03:16 | 3.67936 | -75.35425 | 33085 ft | 484 kts | 44° |
| 2026-05-05 03:16 | 3.72821 | -75.30776 | 32861 ft | 485 kts | 44° |
| 2026-05-05 03:16 | 3.75269 | -75.28447 | 32438 ft | 485 kts | 44° |
| 2026-05-05 03:17 | 3.77712 | -75.26121 | 32032 ft | 485 kts | 44° |
| 2026-05-05 03:17 | 3.80131 | -75.23819 | 31628 ft | 486 kts | 44° |
| 2026-05-05 03:17 | 3.82575 | -75.21493 | 31227 ft | 484 kts | 44° |
| 2026-05-05 03:17 | 3.84995 | -75.19189 | 30837 ft | 481 kts | 44° |
| 2026-05-05 03:18 | 3.87416 | -75.16885 | 30446 ft | 478 kts | 44° |
| 2026-05-05 03:18 | 3.89812 | -75.14603 | 30063 ft | 475 kts | 44° |
| 2026-05-05 03:18 | 3.92210 | -75.12320 | 29621 ft | 471 kts | 44° |
| 2026-05-05 03:18 | 3.94573 | -75.10070 | 29186 ft | 467 kts | 44° |
| 2026-05-05 03:19 | 3.99237 | -75.05627 | 28348 ft | 459 kts | 44° |
| 2026-05-05 03:19 | 4.01545 | -75.03429 | 27950 ft | 455 kts | 44° |
| 2026-05-05 03:19 | 4.03834 | -75.01247 | 27554 ft | 452 kts | 44° |
| 2026-05-05 03:20 | 4.06106 | -74.99083 | 27177 ft | 449 kts | 44° |
| 2026-05-05 03:20 | 4.08358 | -74.96937 | 26798 ft | 446 kts | 44° |
| 2026-05-05 03:20 | 4.10597 | -74.94804 | 26436 ft | 442 kts | 44° |
| 2026-05-05 03:20 | 4.12818 | -74.92687 | 26069 ft | 439 kts | 44° |
| 2026-05-05 03:21 | 4.15028 | -74.90581 | 25717 ft | 436 kts | 44° |
| 2026-05-05 03:21 | 4.17301 | -74.88581 | 25349 ft | 434 kts | 37° |
| 2026-05-05 03:21 | 4.19907 | -74.87061 | 25022 ft | 433 kts | 25° |
| 2026-05-05 03:21 | 4.22725 | -74.86122 | 24694 ft | 433 kts | 14° |
| 2026-05-05 03:22 | 4.25702 | -74.85688 | 24366 ft | 432 kts | 9° |
| 2026-05-05 03:22 | 4.28702 | -74.85320 | 24025 ft | 425 kts | 9° |
| 2026-05-05 03:22 | 4.31566 | -74.84955 | 23707 ft | 415 kts | 9° |
| 2026-05-05 03:22 | 4.34401 | -74.84586 | 23328 ft | 405 kts | 9° |
| 2026-05-05 03:23 | 4.37157 | -74.84224 | 22955 ft | 396 kts | 9° |
| 2026-05-05 03:23 | 4.39866 | -74.83866 | 22623 ft | 386 kts | 10° |
| 2026-05-05 03:23 | 4.42500 | -74.83517 | 22280 ft | 377 kts | 10° |
| 2026-05-05 03:23 | 4.45079 | -74.83176 | 21951 ft | 373 kts | 10° |
| 2026-05-05 03:24 | 4.47658 | -74.82833 | 21632 ft | 375 kts | 9° |
| 2026-05-05 03:24 | 4.50248 | -74.82491 | 21323 ft | 374 kts | 10° |
| 2026-05-05 03:24 | 4.52805 | -74.82154 | 21192 ft | 370 kts | 10° |
| 2026-05-05 03:24 | 4.55364 | -74.81817 | 21160 ft | 372 kts | 10° |
| 2026-05-05 03:25 | 4.57939 | -74.81476 | 21165 ft | 373 kts | 10° |
| 2026-05-05 03:25 | 4.60481 | -74.81140 | 21168 ft | 373 kts | 10° |
| 2026-05-05 03:25 | 4.63052 | -74.80801 | 21169 ft | 372 kts | 10° |
| 2026-05-05 03:25 | 4.65631 | -74.80461 | 21171 ft | 373 kts | 10° |
| 2026-05-05 03:26 | 4.68203 | -74.80121 | 21170 ft | 373 kts | 10° |
| 2026-05-05 03:26 | 4.70765 | -74.79783 | 20973 ft | 373 kts | 10° |
| 2026-05-05 03:26 | 4.73356 | -74.79441 | 20538 ft | 374 kts | 10° |
| 2026-05-05 03:26 | 4.75925 | -74.79154 | 20072 ft | 370 kts | 6° |
| 2026-05-05 03:27 | 4.78475 | -74.79192 | 19636 ft | 367 kts | 358° |
| 2026-05-05 03:27 | 4.81003 | -74.79538 | 19192 ft | 365 kts | 354° |
| 2026-05-05 03:27 | 4.83529 | -74.79913 | 18754 ft | 365 kts | 354° |
| 2026-05-05 03:27 | 4.86021 | -74.80270 | 18317 ft | 361 kts | 355° |
| 2026-05-05 03:28 | 4.88503 | -74.80619 | 17811 ft | 358 kts | 355° |
| 2026-05-05 03:28 | 4.90971 | -74.80964 | 17343 ft | 357 kts | 355° |
| 2026-05-05 03:28 | 4.93415 | -74.81222 | 17148 ft | 351 kts | 1° |
| 2026-05-05 03:28 | 4.95845 | -74.81058 | 17098 ft | 351 kts | 12° |
| 2026-05-05 03:29 | 4.98207 | -74.80456 | 17080 ft | 349 kts | 21° |
| 2026-05-05 03:29 | 5.00513 | -74.79697 | 17062 ft | 349 kts | 20° |
| 2026-05-05 03:29 | 5.02832 | -74.78955 | 17048 ft | 349 kts | 20° |
| 2026-05-05 03:29 | 5.05124 | -74.78231 | 17037 ft | 350 kts | 20° |
| 2026-05-05 03:30 | 5.07449 | -74.77502 | 17022 ft | 349 kts | 19° |
| 2026-05-05 03:30 | 5.09757 | -74.76725 | 17018 ft | 350 kts | 24° |
| 2026-05-05 03:30 | 5.11874 | -74.75604 | 17013 ft | 346 kts | 35° |
| 2026-05-05 03:30 | 5.13764 | -74.74087 | 17018 ft | 344 kts | 45° |
| 2026-05-05 03:31 | 5.15482 | -74.72411 | 17018 ft | 345 kts | 45° |
| 2026-05-05 03:31 | 5.17215 | -74.70745 | 17028 ft | 344 kts | 45° |
| 2026-05-05 03:31 | 5.18957 | -74.69090 | 17034 ft | 345 kts | 45° |
| 2026-05-05 03:31 | 5.20698 | -74.67442 | 17045 ft | 345 kts | 45° |
| 2026-05-05 03:32 | 5.22441 | -74.65796 | 17058 ft | 344 kts | 45° |
| 2026-05-05 03:32 | 5.24100 | -74.64065 | 17076 ft | 344 kts | 52° |
| 2026-05-05 03:32 | 5.25413 | -74.62071 | 17084 ft | 342 kts | 63° |
| 2026-05-05 03:32 | 5.26334 | -74.59903 | 17104 ft | 342 kts | 71° |
| 2026-05-05 03:33 | 5.27141 | -74.57656 | 17123 ft | 343 kts | 70° |
| 2026-05-05 03:33 | 5.27967 | -74.55413 | 17141 ft | 342 kts | 70° |
| 2026-05-05 03:33 | 5.28803 | -74.53173 | 17155 ft | 342 kts | 70° |
| 2026-05-05 03:33 | 5.29645 | -74.50928 | 17168 ft | 344 kts | 70° |
| 2026-05-05 03:34 | 5.30436 | -74.48669 | 17160 ft | 340 kts | 75° |
| 2026-05-05 03:34 | 5.30859 | -74.46332 | 17176 ft | 343 kts | 84° |
| 2026-05-05 03:34 | 5.30863 | -74.43943 | 17182 ft | 344 kts | 94° |
| 2026-05-05 03:34 | 5.30635 | -74.41558 | 17182 ft | 344 kts | 95° |
| 2026-05-05 03:35 | 5.30424 | -74.39124 | 17194 ft | 343 kts | 94° |
| 2026-05-05 03:35 | 5.30093 | -74.36756 | 17205 ft | 345 kts | 105° |
| 2026-05-05 03:35 | 5.29068 | -74.34618 | 17135 ft | 348 kts | 124° |
| 2026-05-05 03:35 | 5.27350 | -74.32900 | 16827 ft | 352 kts | 143° |
| 2026-05-05 03:36 | 5.25133 | -74.31865 | 16466 ft | 352 kts | 163° |
| 2026-05-05 03:36 | 5.22712 | -74.31666 | 16102 ft | 351 kts | 184° |
| 2026-05-05 03:36 | 5.20356 | -74.32266 | 15745 ft | 347 kts | 197° |
| 2026-05-05 03:36 | 5.18125 | -74.33113 | 15393 ft | 339 kts | 199° |
| 2026-05-05 03:37 | 5.15951 | -74.33938 | 15038 ft | 328 kts | 197° |
| 2026-05-05 03:37 | 5.13826 | -74.34681 | 14723 ft | 318 kts | 196° |
| 2026-05-05 03:37 | 5.11740 | -74.35358 | 14409 ft | 311 kts | 195° |
| 2026-05-05 03:37 | 5.09700 | -74.35992 | 14096 ft | 302 kts | 194° |
| 2026-05-05 03:38 | 5.07719 | -74.36596 | 13779 ft | 293 kts | 194° |
| 2026-05-05 03:38 | 5.05789 | -74.37177 | 13450 ft | 289 kts | 194° |
| 2026-05-05 03:38 | 5.03862 | -74.37756 | 13127 ft | 289 kts | 194° |
| 2026-05-05 03:38 | 5.01945 | -74.38336 | 12811 ft | 286 kts | 194° |
| 2026-05-05 03:39 | 5.00052 | -74.38911 | 12513 ft | 284 kts | 194° |
| 2026-05-05 03:39 | 4.98160 | -74.39485 | 12203 ft | 283 kts | 194° |
| 2026-05-05 03:39 | 4.96285 | -74.40056 | 11931 ft | 280 kts | 194° |
| 2026-05-05 03:39 | 4.94432 | -74.40621 | 11843 ft | 277 kts | 194° |
| 2026-05-05 03:40 | 4.92543 | -74.40952 | 11846 ft | 276 kts | 174° |
| 2026-05-05 03:40 | 4.90764 | -74.40369 | 11860 ft | 270 kts | 144° |
| 2026-05-05 03:40 | 4.89459 | -74.39134 | 11867 ft | 245 kts | 128° |
| 2026-05-05 03:40 | 4.88669 | -74.38097 | 11878 ft | 217 kts | 124° |
| 2026-05-05 03:41 | 4.87826 | -74.36931 | 11895 ft | 210 kts | 126° |
| 2026-05-05 03:41 | 4.86903 | -74.35739 | 11908 ft | 211 kts | 126° |
| 2026-05-05 03:41 | 4.86075 | -74.34648 | 11916 ft | 183 kts | 126° |
| 2026-05-05 03:41 | 4.85318 | -74.33646 | 11934 ft | 184 kts | 125° |
| 2026-05-05 03:42 | 4.84540 | -74.32610 | 11943 ft | 186 kts | 126° |
| 2026-05-05 03:42 | 4.83761 | -74.31581 | 11947 ft | 184 kts | 126° |
| 2026-05-05 03:42 | 4.83006 | -74.30593 | 11949 ft | 179 kts | 126° |
| 2026-05-05 03:42 | 4.82246 | -74.29589 | 11792 ft | 177 kts | 126° |
| 2026-05-05 03:43 | 4.81502 | -74.28608 | 11582 ft | 176 kts | 126° |
| 2026-05-05 03:43 | 4.80777 | -74.27651 | 11380 ft | 175 kts | 126° |
| 2026-05-05 03:43 | 4.80040 | -74.26679 | 11179 ft | 175 kts | 126° |
| 2026-05-05 03:43 | 4.79301 | -74.25705 | 10958 ft | 175 kts | 126° |
| 2026-05-05 03:44 | 4.78563 | -74.24731 | 10758 ft | 174 kts | 126° |
| 2026-05-05 03:44 | 4.77825 | -74.23757 | 10549 ft | 173 kts | 126° |
| 2026-05-05 03:44 | 4.77106 | -74.22808 | 10348 ft | 174 kts | 126° |
| 2026-05-05 03:44 | 4.76373 | -74.21838 | 10118 ft | 174 kts | 126° |
| 2026-05-05 03:45 | 4.75645 | -74.20882 | 9887 ft | 173 kts | 127° |
| 2026-05-05 03:45 | 4.74916 | -74.19919 | 9660 ft | 170 kts | 127° |
| 2026-05-05 03:45 | 4.74200 | -74.18975 | 9430 ft | 170 kts | 126° |
| 2026-05-05 03:45 | 4.73485 | -74.18027 | 9164 ft | 171 kts | 127° |
| 2026-05-05 03:46 | 4.73006 | -74.17399 | 8999 ft | 172 kts | 127° |
| 2026-05-05 03:46 | 4.72278 | -74.16435 | 8752 ft | 174 kts | 128° |
| 2026-05-05 03:46 | 4.71543 | -74.15464 | 8492 ft | 172 kts | 128° |
| 2026-05-05 03:46 | 4.70830 | -74.14531 | 8373 ft | 152 kts | 128° |
| 2026-05-05 03:47 | 4.70375 | -74.13929 | 8372 ft | 64 kts | 127° |
| 2026-05-05 03:47 | 4.70235 | -74.13753 | 8371 ft | 19 kts | 133° |
| 2026-05-05 03:47 | 4.70161 | -74.13690 | 8372 ft | 13 kts | 145° |
| 2026-05-05 03:47 | 4.70087 | -74.13649 | 8373 ft | 11 kts | 153° |
| 2026-05-05 03:48 | 4.70022 | -74.13620 | 8372 ft | 9 kts | 156° |
| 2026-05-05 03:48 | 4.69962 | -74.13596 | 8372 ft | 9 kts | 159° |
| 2026-05-05 03:48 | 4.69907 | -74.13606 | 8372 ft | 8 kts | 212° |
| 2026-05-05 03:48 | 4.69903 | -74.13638 | 8372 ft | 3 kts | 291° |
| 2026-05-05 03:49 | 4.69918 | -74.13656 | 8372 ft | 4 kts | 307° |
| 2026-05-05 03:49 | 4.69944 | -74.13690 | 8372 ft | 9 kts | 307° |
| 2026-05-05 03:49 | 4.69994 | -74.13755 | 8372 ft | 14 kts | 307° |
| 2026-05-05 03:49 | 4.70063 | -74.13847 | 8372 ft | 19 kts | 306° |
| 2026-05-05 03:50 | 4.70150 | -74.13962 | 8372 ft | 22 kts | 307° |
| 2026-05-05 03:50 | 4.70241 | -74.14083 | 8372 ft | 21 kts | 307° |
| 2026-05-05 03:50 | 4.70328 | -74.14199 | 8372 ft | 19 kts | 307° |
| 2026-05-05 03:50 | 4.70383 | -74.14271 | 8372 ft | 11 kts | 306° |
| 2026-05-05 03:51 | 4.70392 | -74.14303 | 8372 ft | 0 kts | 281° |
| 2026-05-05 03:51 | 4.70386 | -74.14320 | 8372 ft | 6 kts | 254° |
| 2026-05-05 03:51 | 4.70373 | -74.14339 | 8372 ft | 3 kts | 231° |
| 2026-05-05 03:51 | 4.70331 | -74.14374 | 8372 ft | 13 kts | 218° |
| 2026-05-05 03:52 | 4.70261 | -74.14426 | 8372 ft | 5 kts | 216° |
| 2026-05-05 03:52 | 4.70232 | -74.14447 | 8372 ft | 5 kts | 216° |
| 2026-05-05 03:52 | 4.70201 | -74.14455 | 8372 ft | 3 kts | 179° |
| 2026-05-05 03:52 | 4.70182 | -74.14440 | 8372 ft | 3 kts | 144° |
| 2026-05-05 03:53 | 4.70167 | -74.14425 | 8372 ft | 3 kts | 133° |
| 2026-05-05 03:53 | 4.70157 | -74.14413 | 8372 ft | 2 kts | 130° |
| 2026-05-05 03:53 | 4.70156 | -74.14412 | 8372 ft | 0 kts | 130° |
| 2026-05-05 03:53 | 4.70156 | -74.14411 | 8372 ft | 0 kts | 130° |
| 2026-05-05 03:54 | 4.70156 | -74.14412 | 8372 ft | 0 kts | 127° |